Time;durP1;ratioP1;P1;durP2;ratioP2;P2;SDS_P1;SDS_P2;PMS_P1;PMS_P2;Temp;Humidity;BMP_temperature;BMP_pressure;BME280_temperature;BME280_humidity;BME280_pressure;Samples;Min_cycle;Max_cycle;Signal;HPM_P1;HPM_P2
2021/03/24 00:04:51;;;;;;;17.27;11.22;;;;;;;4.33;74.41;100498.55;251921;1105;116278;-68
2021/03/24 00:09:55;;;;;;;16.82;8.80;;;;;;;4.35;73.92;100492.09;253039;1105;116373;-67
2021/03/24 00:14:58;;;;;;;17.40;10.70;;;;;;;4.37;74.74;100500.66;252260;1105;116984;-67
2021/03/24 00:20:06;;;;;;;16.97;9.33;;;;;;;4.34;74.52;100498.37;251803;1105;115613;-67
2021/03/24 00:25:14;;;;;;;17.42;10.10;;;;;;;4.29;73.90;100498.06;252765;1105;115355;-67
2021/03/24 00:30:25;;;;;;;16.40;8.65;;;;;;;4.23;74.48;100493.52;252140;1105;116837;-67
2021/03/24 00:35:29;;;;;;;15.63;10.43;;;;;;;4.18;74.19;100493.22;254726;1105;114825;-67
2021/03/24 00:40:38;;;;;;;18.50;11.12;;;;;;;4.19;75.41;100504.59;252852;1105;114968;-64
2021/03/24 00:45:43;;;;;;;16.62;9.75;;;;;;;4.24;75.21;100505.72;254158;1105;115306;-68
2021/03/24 00:50:46;;;;;;;20.40;10.40;;;;;;;4.27;74.85;100499.27;254824;1104;114744;-69
2021/03/24 00:55:51;;;;;;;16.23;10.35;;;;;;;4.27;74.31;100508.02;252356;1105;116729;-68
2021/03/24 01:00:55;;;;;;;13.78;10.18;;;;;;;4.24;74.47;100504.89;252017;1105;114760;-67
2021/03/24 01:05:58;;;;;;;17.57;10.28;;;;;;;4.18;75.39;100516.97;251757;1104;115838;-67
2021/03/24 01:11:03;;;;;;;16.42;10.28;;;;;;;4.15;75.66;100512.03;252332;1105;116562;-68
2021/03/24 01:16:07;;;;;;;19.48;11.28;;;;;;;4.15;75.32;100509.39;251420;1104;115527;-69
2021/03/24 01:21:11;;;;;;;15.72;9.23;;;;;;;4.18;74.75;100511.69;251631;1105;117181;-67
2021/03/24 01:26:16;;;;;;;16.70;9.40;;;;;;;4.20;75.40;100514.16;252483;1104;116522;-65
2021/03/24 01:31:19;;;;;;;21.12;11.08;;;;;;;4.22;75.11;100515.63;251742;1105;115399;-67
2021/03/24 01:36:23;;;;;;;15.85;12.18;;;;;;;4.21;74.14;100506.06;252756;1104;114719;-66
2021/03/24 01:41:27;;;;;;;21.48;12.15;;;;;;;4.19;74.30;100520.42;252856;1104;114851;-66
2021/03/24 01:46:38;;;;;;;16.70;11.57;;;;;;;4.14;75.07;100505.11;252902;1105;117926;-66
2021/03/24 01:52:08;;;;;;;21.27;11.88;;;;;;;4.16;74.58;100513.67;251664;1105;114799;-65
2021/03/24 01:57:26;;;;;;;24.70;12.15;;;;;;;4.24;74.22;100515.45;253319;1105;115312;-67
2021/03/24 02:02:36;;;;;;;21.05;11.80;;;;;;;4.27;74.75;100515.11;251638;1105;116164;-68
2021/03/24 02:08:01;;;;;;;17.25;10.75;;;;;;;4.20;75.46;100514.97;253020;1104;115599;-65
2021/03/24 02:13:30;;;;;;;20.20;10.23;;;;;;;4.17;74.55;100510.05;252155;1105;115699;-64
2021/03/24 02:18:37;;;;;;;15.60;9.58;;;;;;;4.18;74.34;100510.86;253256;1104;115784;-67
2021/03/24 02:23:40;;;;;;;17.35;11.05;;;;;;;4.20;75.04;100508.88;252701;1104;116039;-66
2021/03/24 02:28:47;;;;;;;20.62;11.03;;;;;;;4.19;75.38;100510.69;253375;1104;115124;-65
2021/03/24 02:33:53;;;;;;;21.02;11.85;;;;;;;4.10;75.80;100510.91;252449;1104;114779;-68
2021/03/24 02:39:00;;;;;;;17.37;10.40;;;;;;;4.04;75.73;100507.14;254654;1105;114935;-67
2021/03/24 02:44:04;;;;;;;21.57;11.45;;;;;;;4.05;75.72;100506.97;254816;1104;115087;-67
2021/03/24 02:49:10;;;;;;;18.23;9.70;;;;;;;4.09;76.33;100502.17;254676;1105;115518;-70
2021/03/24 02:54:17;;;;;;;23.47;10.88;;;;;;;4.06;76.16;100513.06;253707;1105;115814;-70
2021/03/24 02:59:22;;;;;;;21.85;12.88;;;;;;;4.02;75.58;100514.40;254450;1104;115097;-67
2021/03/24 03:04:48;;;;;;;18.90;10.20;;;;;;;3.96;76.55;100512.48;253409;1104;115408;-68
2021/03/24 03:09:57;;;;;;;23.42;14.53;;;;;;;3.98;76.47;100513.92;253217;1104;114930;-64
2021/03/24 03:15:25;;;;;;;20.37;11.53;;;;;;;4.01;76.87;100512.75;252550;1105;115220;-65
2021/03/24 03:20:33;;;;;;;18.40;10.45;;;;;;;3.96;76.68;100523.03;252988;1105;116285;-64
2021/03/24 03:25:39;;;;;;;19.23;10.30;;;;;;;3.93;77.28;100518.09;251969;1105;114929;-66
2021/03/24 03:30:49;;;;;;;24.53;10.73;;;;;;;3.93;77.49;100516.28;251652;1105;115405;-66
2021/03/24 03:35:54;;;;;;;21.82;14.30;;;;;;;3.94;77.59;100509.19;252895;1104;115652;-66
2021/03/24 03:41:02;;;;;;;20.48;13.22;;;;;;;3.94;77.82;100506.55;252135;1105;115278;-66
2021/03/24 03:46:06;;;;;;;18.98;9.95;;;;;;;3.91;77.70;100506.89;251878;1105;116090;-66
2021/03/24 03:51:17;;;;;;;25.05;11.97;;;;;;;3.84;78.77;100500.66;253134;1105;114982;-67
2021/03/24 03:56:32;;;;;;;17.85;11.30;;;;;;;3.82;78.53;100510.56;251752;1105;115008;-66
2021/03/24 04:01:40;;;;;;;21.65;13.10;;;;;;;3.80;78.46;100509.91;251659;1105;115175;-65
2021/03/24 04:06:49;;;;;;;22.10;12.90;;;;;;;3.77;78.37;100515.52;253026;1104;115639;-66
2021/03/24 04:11:54;;;;;;;21.02;12.60;;;;;;;3.75;79.28;100514.87;252374;1104;115208;-66
2021/03/24 04:16:58;;;;;;;18.98;13.03;;;;;;;3.77;78.57;100518.16;251694;1105;116129;-66
2021/03/24 04:22:02;;;;;;;19.77;11.38;;;;;;;3.80;78.96;100517.81;252765;1105;115621;-66
2021/03/24 04:27:09;;;;;;;17.77;12.20;;;;;;;3.79;78.96;100519.63;251831;1105;115880;-66
2021/03/24 04:32:13;;;;;;;24.75;13.15;;;;;;;3.76;79.42;100529.70;251717;1105;115272;-66
2021/03/24 04:37:42;;;;;;;20.95;11.63;;;;;;;3.73;78.92;100517.67;253261;1105;115675;-66
2021/03/24 04:42:52;;;;;;;25.65;11.18;;;;;;;3.72;79.50;100523.94;253765;1105;115530;-65
2021/03/24 04:47:57;;;;;;;22.98;13.18;;;;;;;3.68;78.94;100526.09;254381;1105;115637;-66
2021/03/24 04:53:05;;;;;;;23.12;11.55;;;;;;;3.69;79.63;100538.28;253630;1105;114972;-66
2021/03/24 04:58:25;;;;;;;17.77;12.40;;;;;;;3.72;79.58;100540.58;251580;1105;115216;-65
2021/03/24 05:03:35;;;;;;;20.27;12.28;;;;;;;3.75;79.77;100542.06;253740;1105;114956;-65
2021/03/24 05:08:44;;;;;;;25.15;12.53;;;;;;;3.75;79.08;100543.88;253243;1105;115256;-68
2021/03/24 05:14:20;;;;;;;21.07;14.33;;;;;;;3.70;79.14;100534.66;252099;1105;115016;-67
2021/03/24 05:19:27;;;;;;;29.07;15.67;;;;;;;3.78;78.94;100543.53;252326;1105;138339;-67
2021/03/24 05:24:35;;;;;;;20.43;11.65;;;;;;;3.86;79.48;100546.15;252419;1104;116090;-68
2021/03/24 05:29:53;;;;;;;19.60;12.73;;;;;;;3.85;79.57;100550.59;251754;1105;115870;-67
2021/03/24 05:34:59;;;;;;;29.18;13.15;;;;;;;3.87;79.74;100553.06;251687;1105;116494;-67
2021/03/24 05:40:11;;;;;;;30.00;14.35;;;;;;;3.91;80.26;100562.28;252127;1105;115459;-67
2021/03/24 05:45:28;;;;;;;26.95;13.03;;;;;;;4.02;79.32;100559.25;251732;1105;116108;-67
2021/03/24 05:50:41;;;;;;;26.45;12.10;;;;;;;4.09;79.72;100559.39;253035;1104;115929;-68
2021/03/24 05:56:06;;;;;;;21.17;14.00;;;;;;;4.12;79.24;100567.78;251525;1105;115783;-67
2021/03/24 06:01:30;;;;;;;26.95;13.40;;;;;;;4.21;79.01;100564.12;251697;1105;116412;-68
2021/03/24 06:06:43;;;;;;;28.67;16.97;;;;;;;4.35;76.80;100560.72;252522;1105;114967;-68
2021/03/24 06:12:02;;;;;;;28.17;13.68;;;;;;;4.52;76.70;100565.92;251554;1105;115772;-67
2021/03/24 06:17:21;;;;;;;21.60;12.37;;;;;;;4.61;76.22;100568.30;253168;1105;116592;-68
2021/03/24 06:22:40;;;;;;;30.50;15.17;;;;;;;4.76;76.17;100572.84;251447;1105;115617;-67
2021/03/24 06:28:00;;;;;;;35.83;18.17;;;;;;;4.83;74.76;100574.61;253322;1104;115886;-68
2021/03/24 06:33:40;;;;;;;33.23;16.80;;;;;;;4.96;74.51;100574.81;254070;1105;115206;-69
2021/03/24 06:39:05;;;;;;;24.07;15.25;;;;;;;5.13;73.29;100586.09;252489;1105;115059;-68
2021/03/24 06:44:15;;;;;;;19.70;12.88;;;;;;;5.27;72.80;100581.81;254701;1104;116099;-68
2021/03/24 06:49:34;;;;;;;21.77;10.85;;;;;;;5.43;72.77;100583.50;254802;1104;115239;-68
2021/03/24 06:54:59;;;;;;;15.65;9.65;;;;;;;5.59;73.14;100588.61;253088;1105;116003;-68
2021/03/24 07:00:15;;;;;;;24.85;12.33;;;;;;;5.78;71.67;100593.37;252423;1105;115905;-68
2021/03/24 07:05:52;;;;;;;22.22;13.80;;;;;;;6.01;70.74;100575.59;253298;1104;115921;-68
2021/03/24 07:10:56;;;;;;;27.45;13.28;;;;;;;6.28;69.83;100586.50;252707;1105;115733;-68
2021/03/24 07:16:20;;;;;;;15.20;9.28;;;;;;;6.41;68.01;100590.13;251550;1104;115510;-67
2021/03/24 07:21:43;;;;;;;23.52;12.80;;;;;;;6.56;66.18;100590.06;251578;1105;114735;-66
2021/03/24 07:27:07;;;;;;;25.73;13.20;;;;;;;6.79;66.14;100597.02;251702;1105;114908;-67
2021/03/24 07:32:22;;;;;;;21.37;12.97;;;;;;;7.01;66.80;100590.72;251893;1105;115593;-67
2021/03/24 07:37:34;;;;;;;21.57;10.18;;;;;;;7.15;65.79;100597.77;252568;1105;115838;-67
2021/03/24 07:42:59;;;;;;;10.85;6.50;;;;;;;7.19;64.55;100606.16;251798;1105;114990;-66
2021/03/24 07:48:21;;;;;;;19.40;11.43;;;;;;;7.37;65.40;100609.15;252183;1105;115922;-68
2021/03/24 07:53:48;;;;;;;17.70;7.65;;;;;;;7.44;62.69;100607.38;252941;1105;115836;-67
2021/03/24 07:59:03;;;;;;;10.23;7.47;;;;;;;7.74;61.05;100611.45;251776;1105;115721;-67
2021/03/24 08:04:25;;;;;;;13.50;7.78;;;;;;;7.95;60.21;100612.41;253110;1104;115612;-67
2021/03/24 08:09:43;;;;;;;13.48;8.70;;;;;;;8.07;60.61;100616.13;251696;1105;115903;-67
2021/03/24 08:14:52;;;;;;;14.75;7.42;;;;;;;7.98;59.04;100609.34;252479;1105;116471;-66
2021/03/24 08:20:18;;;;;;;12.40;8.23;;;;;;;7.74;59.48;100600.84;252476;1105;116121;-67
2021/03/24 08:25:47;;;;;;;9.50;7.37;;;;;;;7.66;59.46;100603.64;252980;1104;117783;-67
2021/03/24 08:31:00;;;;;;;12.40;7.33;;;;;;;7.72;59.61;100608.17;253464;1104;116711;-67
2021/03/24 08:36:35;;;;;;;11.15;6.92;;;;;;;7.73;61.08;100609.00;253018;1105;115617;-66
2021/03/24 08:42:01;;;;;;;8.78;6.12;;;;;;;7.74;60.52;100613.29;253715;1105;118199;-67
2021/03/24 08:47:15;;;;;;;8.30;5.60;;;;;;;7.62;60.15;100607.72;254250;1104;120440;-66
2021/03/24 08:52:34;;;;;;;12.00;8.05;;;;;;;7.57;59.36;100607.48;254679;1105;115358;-67
2021/03/24 08:58:14;;;;;;;9.93;6.65;;;;;;;7.56;60.45;100605.84;254993;1104;116774;-66
2021/03/24 09:03:25;;;;;;;4.65;3.12;;;;;;;7.37;60.01;100599.36;254611;1104;117474;-67
2021/03/24 09:08:34;;;;;;;7.07;5.43;;;;;;;7.26;59.48;100601.73;253382;1105;115796;-66
2021/03/24 09:13:58;;;;;;;8.50;4.83;;;;;;;7.24;61.00;100604.58;252526;1105;118376;-66
2021/03/24 09:19:23;;;;;;;7.50;5.17;;;;;;;7.31;59.57;100604.64;251981;1105;116759;-67
2021/03/24 09:24:54;;;;;;;6.83;5.10;;;;;;;7.26;60.50;100612.34;252342;1105;117978;-67
2021/03/24 09:30:20;;;;;;;9.50;5.95;;;;;;;7.27;58.93;100603.37;251991;1105;116633;-67
2021/03/24 09:35:46;;;;;;;10.43;5.78;;;;;;;7.29;61.46;100610.13;252881;1105;114552;-67
2021/03/24 09:41:07;;;;;;;8.95;6.67;;;;;;;7.46;57.13;100605.34;252401;1105;116422;-67
2021/03/24 09:46:16;;;;;;;4.90;4.33;;;;;;;7.42;57.73;100602.26;251676;1105;116585;-67
2021/03/24 09:51:25;;;;;;;13.55;7.70;;;;;;;7.51;59.09;100600.29;251613;1105;116396;-68
2021/03/24 09:56:28;;;;;;;8.95;6.62;;;;;;;7.52;59.50;100591.31;251635;1105;116090;-68
2021/03/24 10:01:53;;;;;;;14.68;7.65;;;;;;;7.49;60.16;100589.05;251884;1105;116003;-67
2021/03/24 10:07:07;;;;;;;14.97;8.13;;;;;;;7.45;60.67;100590.44;252080;1105;116233;-68
2021/03/24 10:12:31;;;;;;;9.97;6.33;;;;;;;7.38;60.99;100585.09;252351;1104;115176;-67
2021/03/24 10:17:48;;;;;;;8.75;6.20;;;;;;;7.48;61.16;100579.45;251813;1105;115022;-67
2021/03/24 10:22:58;;;;;;;10.68;7.90;;;;;;;7.50;62.42;100580.08;251576;1105;115095;-67
2021/03/24 10:28:07;;;;;;;16.00;10.30;;;;;;;7.62;61.33;100586.50;253180;1105;114755;-67
2021/03/24 10:33:16;;;;;;;7.90;6.23;;;;;;;7.58;61.55;100584.42;251863;1105;116096;-66
2021/03/24 10:38:32;;;;;;;13.32;6.53;;;;;;;7.58;60.65;100579.94;254112;1104;114513;-67
2021/03/24 10:43:50;;;;;;;13.18;7.17;;;;;;;7.68;62.07;100576.91;254914;1103;115676;-67
2021/03/24 10:49:02;;;;;;;10.20;7.30;;;;;;;7.81;58.20;100576.17;254037;1104;115315;-67
2021/03/24 10:54:27;;;;;;;12.30;7.80;;;;;;;7.78;59.80;100578.20;254899;1104;117446;-67
2021/03/24 10:59:37;;;;;;;9.93;6.80;;;;;;;7.82;59.81;100570.67;254433;1105;116418;-68
2021/03/24 11:04:46;;;;;;;11.55;7.55;;;;;;;7.87;58.34;100572.75;254822;1105;115062;-67
2021/03/24 11:10:02;;;;;;;10.70;6.53;;;;;;;7.97;57.74;100573.18;254415;1104;118314;-67
2021/03/24 11:15:21;;;;;;;;;;;;;;;8.14;57.93;100566.53;252033;1104;115620;-66
2021/03/24 11:20:48;;;;;;;16.95;9.80;;;;;;;8.38;57.78;100570.52;255086;1105;104675;-67
2021/03/24 11:25:59;;;;;;;8.28;6.08;;;;;;;8.48;55.94;100564.84;253158;1105;115293;-67
2021/03/24 11:31:27;;;;;;;12.68;6.83;;;;;;;8.41;56.49;100562.97;252926;1104;117311;-66
2021/03/24 11:36:38;;;;;;;10.48;5.75;;;;;;;8.42;56.00;100550.51;252854;1104;115621;-65
2021/03/24 11:41:44;;;;;;;11.60;7.78;;;;;;;8.31;57.81;100559.02;252685;1105;116230;-66
2021/03/24 11:46:47;;;;;;;9.68;6.47;;;;;;;8.20;57.09;100557.77;251658;1105;117849;-67
2021/03/24 11:52:19;;;;;;;11.80;7.17;;;;;;;8.01;58.20;100564.62;252219;1105;117442;-66
2021/03/24 11:57:48;;;;;;;10.53;6.75;;;;;;;7.83;59.56;100560.88;251441;1105;117825;-67
2021/03/24 12:03:06;;;;;;;10.38;6.65;;;;;;;7.66;59.52;100561.19;253177;1105;115914;-67
2021/03/24 12:08:46;;;;;;;12.27;7.70;;;;;;;7.56;60.46;100546.65;252366;1105;115073;-67
2021/03/24 12:14:01;;;;;;;9.28;6.80;;;;;;;7.51;61.34;100547.23;251428;1105;116989;-66
2021/03/24 12:19:05;;;;;;;9.85;7.05;;;;;;;7.54;61.14;100541.53;253254;1104;115606;-66
2021/03/24 12:24:37;;;;;;;17.15;11.33;;;;;;;7.64;60.21;100539.33;252144;1104;114822;-67
2021/03/24 12:29:58;;;;;;;15.15;9.45;;;;;;;7.65;61.64;100543.62;252794;1104;115036;-66
2021/03/24 12:35:06;;;;;;;11.48;7.42;;;;;;;7.70;61.39;100535.89;251976;1105;117565;-67
2021/03/24 12:40:12;;;;;;;16.50;10.03;;;;;;;7.76;60.17;100543.08;251671;1105;115743;-67
2021/03/24 12:45:38;;;;;;;14.75;9.73;;;;;;;7.63;60.63;100535.06;253607;1104;116172;-67
2021/03/24 12:51:03;;;;;;;7.05;4.05;;;;;;;7.42;60.80;100535.94;254862;1104;117070;-67
2021/03/24 12:56:23;;;;;;;15.83;10.95;;;;;;;7.39;61.67;100535.51;254547;1105;115858;-67
2021/03/24 13:01:57;;;;;;;14.98;9.35;;;;;;;7.39;62.30;100527.55;254340;1105;116292;-67
2021/03/24 13:07:38;;;;;;;23.75;12.23;;;;;;;7.42;62.52;100527.16;255088;1104;114930;-66
2021/03/24 13:13:02;;;;;;;24.23;15.10;;;;;;;7.44;63.06;100533.09;253874;1104;116100;-67
2021/03/24 13:18:21;;;;;;;21.02;12.15;;;;;;;7.45;61.93;100526.78;253458;1105;117123;-67
2021/03/24 13:23:33;;;;;;;20.55;12.88;;;;;;;7.33;61.22;100523.87;253149;1104;217770;-67
2021/03/24 13:28:48;;;;;;;22.67;11.97;;;;;;;7.29;62.26;100521.80;253151;1105;116379;-66
2021/03/24 13:34:02;;;;;;;19.15;12.85;;;;;;;7.23;63.69;100518.08;253204;1104;115505;-67
2021/03/24 13:39:16;;;;;;;16.32;10.05;;;;;;;7.18;62.23;100514.36;253191;1105;115490;-66
2021/03/24 13:44:28;;;;;;;20.43;12.50;;;;;;;7.03;62.11;100511.83;251682;1104;116217;-67
2021/03/24 13:49:51;;;;;;;18.05;11.03;;;;;;;6.98;63.06;100514.23;252436;1105;117060;-66
2021/03/24 13:55:30;;;;;;;18.48;11.88;;;;;;;6.88;61.76;100509.25;251999;1105;116331;-68
2021/03/24 14:01:01;;;;;;;21.70;12.40;;;;;;;6.94;62.84;100508.48;251718;1105;116645;-66
2021/03/24 14:06:20;;;;;;;25.60;14.53;;;;;;;7.02;64.50;100515.48;252000;1105;116217;-66
2021/03/24 14:12:03;;;;;;;19.67;11.55;;;;;;;7.00;63.43;100509.56;251647;1105;117998;-67
2021/03/24 14:17:18;;;;;;;10.65;6.92;;;;;;;6.92;64.97;100507.86;251724;1105;116311;-66
2021/03/24 14:22:37;;;;;;;23.00;12.23;;;;;;;6.89;64.74;100510.07;252342;1105;116182;-67
2021/03/24 14:27:44;;;;;;;15.78;10.63;;;;;;;6.86;64.89;100505.97;251884;1105;116654;-67
2021/03/24 14:32:56;;;;;;;20.52;11.90;;;;;;;6.83;65.02;100503.70;251865;1105;116539;-66
2021/03/24 14:38:27;;;;;;;20.53;12.87;;;;;;;6.81;65.99;100504.90;252936;1105;117142;-66
2021/03/24 14:44:00;;;;;;;22.50;14.93;;;;;;;6.76;65.59;100502.81;251871;1105;116656;-66
2021/03/24 14:49:23;;;;;;;22.73;13.70;;;;;;;6.77;64.95;100501.81;252372;1104;116042;-66
2021/03/24 14:54:30;;;;;;;18.82;12.50;;;;;;;6.78;65.22;100492.84;255119;1105;118009;-66
2021/03/24 14:59:43;;;;;;;12.45;8.93;;;;;;;6.64;66.11;100497.23;253302;1104;116539;-66
2021/03/24 15:04:50;;;;;;;18.23;10.75;;;;;;;6.56;64.90;100486.77;255172;1104;116024;-66
2021/03/24 15:10:17;;;;;;;21.93;11.78;;;;;;;6.54;66.20;100485.31;255173;1105;116984;-66
2021/03/24 15:15:54;;;;;;;20.32;14.15;;;;;;;6.52;67.05;100487.33;253208;1105;117284;-67
2021/03/24 15:21:13;;;;;;;21.30;14.13;;;;;;;6.48;66.48;100491.36;252151;1105;115928;-65
2021/03/24 15:26:33;;;;;;;18.20;11.10;;;;;;;6.36;66.86;100488.41;251708;1105;115897;-66
2021/03/24 15:31:57;;;;;;;23.10;14.58;;;;;;;6.31;66.25;100490.80;253308;1105;116589;-64
2021/03/24 15:37:16;;;;;;;29.07;14.87;;;;;;;6.28;66.69;100484.05;251749;1105;116407;-66
2021/03/24 15:42:31;;;;;;;20.35;13.68;;;;;;;6.25;66.95;100494.20;253435;1104;116014;-66
2021/03/24 15:47:44;;;;;;;25.57;13.62;;;;;;;6.19;67.58;100482.53;251977;1105;116234;-65
2021/03/24 15:52:52;;;;;;;20.00;13.98;;;;;;;6.16;66.82;100482.90;252268;1105;115578;-64
2021/03/24 15:58:28;;;;;;;20.15;12.95;;;;;;;6.10;68.15;100486.32;252110;1105;116096;-66
2021/03/24 16:03:41;;;;;;;19.05;12.82;;;;;;;6.02;67.80;100486.42;252771;1105;116568;-67
2021/03/24 16:08:48;;;;;;;26.73;14.93;;;;;;;5.94;67.69;100479.41;251627;1105;116211;-66
2021/03/24 16:14:34;;;;;;;24.10;15.00;;;;;;;5.99;67.79;100484.15;251846;1105;116136;-66
2021/03/24 16:19:48;;;;;;;20.32;10.98;;;;;;;5.96;68.22;100474.75;251758;1105;116103;-67
2021/03/24 16:25:16;;;;;;;27.70;14.97;;;;;;;5.95;68.69;100472.30;252181;1105;116932;-67
2021/03/24 16:30:28;;;;;;;25.13;15.03;;;;;;;5.89;69.88;100483.62;252562;1105;115741;-65
2021/03/24 16:35:44;;;;;;;20.77;12.85;;;;;;;5.83;69.98;100481.67;252887;1104;116454;-66
2021/03/24 16:41:12;;;;;;;21.30;15.10;;;;;;;5.76;69.48;100481.63;253522;1105;114987;-65
2021/03/24 16:46:57;;;;;;;27.70;14.30;;;;;;;5.69;70.05;100481.53;253534;1105;115158;-67
2021/03/24 16:52:30;;;;;;;24.98;13.03;;;;;;;5.67;70.23;100478.25;254471;1105;116200;-65
2021/03/24 16:58:00;;;;;;;27.10;15.70;;;;;;;5.72;70.02;100482.99;252937;1105;115236;-68
2021/03/24 17:03:18;;;;;;;23.45;13.95;;;;;;;5.73;71.09;100492.57;254639;1105;115951;-64
2021/03/24 17:08:35;;;;;;;32.93;17.52;;;;;;;5.75;70.32;100483.45;254825;1105;115734;-65
2021/03/24 17:13:41;;;;;;;33.20;18.27;;;;;;;5.77;70.63;100482.44;254683;1104;115047;-68
2021/03/24 17:19:09;;;;;;;26.40;15.95;;;;;;;5.73;70.92;100485.45;253927;1104;116498;-65
2021/03/24 17:24:36;;;;;;;25.45;14.85;;;;;;;5.64;71.54;100491.02;252882;1105;115202;-63
2021/03/24 17:29:53;;;;;;;23.45;14.23;;;;;;;5.55;71.99;100500.87;254227;1105;114928;-64
2021/03/24 17:35:08;;;;;;;34.13;20.05;;;;;;;5.51;72.11;100504.87;252206;1105;115950;-67
2021/03/24 17:40:37;;;;;;;31.90;16.93;;;;;;;5.47;73.00;100506.27;253164;1105;115959;-64
2021/03/24 17:46:09;;;;;;;28.43;17.40;;;;;;;5.41;73.85;100501.70;253075;1105;115017;-64
2021/03/24 17:51:26;;;;;;;31.70;16.27;;;;;;;5.37;74.14;100503.07;252583;1105;118394;-67
2021/03/24 17:56:53;;;;;;;26.68;18.40;;;;;;;5.32;74.24;100494.86;252810;1105;117736;-67
2021/03/24 18:02:02;;;;;;;24.40;14.70;;;;;;;5.25;74.69;100499.23;251395;1105;117135;-68
2021/03/24 18:07:26;;;;;;;41.58;22.58;;;;;;;5.26;74.62;100496.41;251404;1105;117470;-67
2021/03/24 18:12:49;;;;;;;33.95;20.05;;;;;;;5.27;74.51;100502.52;252476;1105;116189;-68
2021/03/24 18:18:14;;;;;;;40.95;20.12;;;;;;;5.27;73.68;100494.58;251972;1105;115912;-66
2021/03/24 18:23:24;;;;;;;37.75;19.75;;;;;;;5.26;74.89;100490.30;252392;1105;116465;-67
2021/03/24 18:28:33;;;;;;;32.30;18.97;;;;;;;5.19;75.83;100484.94;251704;1105;115725;-67
2021/03/24 18:33:42;;;;;;;34.98;17.10;;;;;;;5.07;75.26;100487.20;251511;1105;115401;-65
2021/03/24 18:38:52;;;;;;;43.52;22.42;;;;;;;5.01;75.20;100482.62;253067;1104;116580;-66
2021/03/24 18:44:08;;;;;;;46.68;23.25;;;;;;;5.08;76.18;100488.84;253268;1105;115113;-65
2021/03/24 18:49:20;;;;;;;43.10;22.17;;;;;;;5.12;75.96;100484.02;253186;1105;116239;-67
2021/03/24 18:54:24;;;;;;;42.45;22.80;;;;;;;5.11;76.03;100486.84;253341;1104;115152;-65
2021/03/24 18:59:35;;;;;;;44.03;23.92;;;;;;;5.10;76.22;100479.91;254750;1104;115438;-66
2021/03/24 19:04:40;;;;;;;48.52;26.37;;;;;;;5.13;75.53;100484.84;254567;1105;115792;-67
2021/03/24 19:09:50;;;;;;;46.10;26.00;;;;;;;5.14;75.69;100487.30;254263;1105;115958;-65
2021/03/24 19:14:57;;;;;;;50.48;27.60;;;;;;;5.12;75.31;100478.73;254169;1105;116068;-64
2021/03/24 19:20:37;;;;;;;50.83;28.50;;;;;;;5.07;76.25;100476.63;253981;1105;115972;-66
2021/03/24 19:25:43;;;;;;;48.15;27.67;;;;;;;5.05;76.26;100491.84;253807;1104;115798;-65
2021/03/24 19:30:49;;;;;;;57.30;29.07;;;;;;;5.10;76.27;100478.09;254344;1104;115292;-66
2021/03/24 19:36:09;;;;;;;41.80;25.90;;;;;;;5.19;75.04;100481.47;252682;1104;115395;-67
2021/03/24 19:41:11;;;;;;;62.45;32.30;;;;;;;5.18;74.76;100469.26;251616;1105;115472;-66
2021/03/24 19:46:28;;;;;;;45.12;27.27;;;;;;;5.13;74.91;100468.98;253196;1105;116213;-66
2021/03/24 19:51:33;;;;;;;48.20;26.00;;;;;;;5.04;74.13;100466.41;252992;1105;115446;-67
2021/03/24 19:57:08;;;;;;;46.42;26.48;;;;;;;5.06;74.87;100479.45;252421;1105;115874;-66
2021/03/24 20:02:55;;;;;;;62.33;31.25;;;;;;;5.03;74.92;100479.80;252078;1105;116255;-67
2021/03/24 20:08:47;;;;;;;49.58;28.70;;;;;;;5.02;74.56;100473.70;251761;1105;116084;-63
2021/03/24 20:14:02;;;;;;;45.67;25.65;;;;;;;4.93;75.40;100477.41;252229;1105;116511;-66
2021/03/24 20:19:24;;;;;;;55.12;30.62;;;;;;;4.95;75.86;100479.88;251672;1105;115683;-64
2021/03/24 20:24:29;;;;;;;49.20;27.10;;;;;;;4.85;76.03;100482.80;251700;1105;116536;-64
2021/03/24 20:29:35;;;;;;;39.20;22.32;;;;;;;4.74;75.36;100480.58;251868;1105;116502;-65
2021/03/24 20:34:45;;;;;;;49.77;26.17;;;;;;;4.67;76.21;100474.36;251552;1105;116615;-64
2021/03/24 20:40:07;;;;;;;44.05;24.85;;;;;;;4.64;76.80;100485.27;252977;1105;116666;-65
2021/03/24 20:45:19;;;;;;;43.55;24.45;;;;;;;4.58;77.76;100480.73;251964;1105;117062;-64
2021/03/24 20:50:31;;;;;;;55.37;29.00;;;;;;;4.54;77.94;100482.08;251507;1105;116454;-64
2021/03/24 20:55:36;;;;;;;44.18;24.77;;;;;;;4.54;78.42;100476.80;252419;1105;115659;-67
2021/03/24 21:00:43;;;;;;;50.78;25.35;;;;;;;4.52;79.09;100481.43;251646;1105;116559;-67
2021/03/24 21:05:51;;;;;;;44.23;24.75;;;;;;;4.53;78.64;100472.52;253675;1104;115868;-67
2021/03/24 21:10:55;;;;;;;;;;;;;;;4.51;77.00;100472.69;252677;1105;117047;-67
2021/03/24 21:16:00;;;;;;;41.83;24.47;;;;;;;4.47;76.57;100462.66;255534;1105;103047;-63
2021/03/24 21:21:13;;;;;;;52.03;27.15;;;;;;;4.44;76.88;100463.01;255016;1104;116137;-67
2021/03/24 21:26:20;;;;;;;48.58;29.02;;;;;;;4.46;76.71;100467.11;252977;1105;114891;-67
2021/03/24 21:31:25;;;;;;;64.20;33.17;;;;;;;4.43;77.97;100462.19;251632;1105;116042;-66
2021/03/24 21:36:29;;;;;;;61.25;30.48;;;;;;;4.48;77.50;100465.12;252519;1105;115956;-67
2021/03/24 21:41:33;;;;;;;61.30;34.50;;;;;;;4.54;78.21;100474.98;252121;1104;115357;-67
2021/03/24 21:46:48;;;;;;;51.08;30.62;;;;;;;4.49;78.05;100473.86;253040;1104;115122;-66
2021/03/24 21:51:55;;;;;;;39.55;21.55;;;;;;;4.43;78.38;100469.28;252379;1105;115993;-67
2021/03/24 21:57:27;;;;;;;46.37;25.60;;;;;;;4.49;78.03;100464.13;252207;1105;115486;-67
2021/03/24 22:02:47;;;;;;;43.00;24.60;;;;;;;4.55;77.98;100468.70;252816;1105;115090;-64
2021/03/24 22:07:51;;;;;;;35.17;21.77;;;;;;;4.41;77.86;100472.09;251760;1104;115485;-65
2021/03/24 22:13:29;;;;;;;40.92;22.22;;;;;;;4.36;78.08;100467.34;251961;1105;115321;-67
2021/03/24 22:18:36;;;;;;;26.30;17.20;;;;;;;4.26;79.68;100465.95;252162;1105;115838;-64
2021/03/24 22:23:40;;;;;;;63.23;31.37;;;;;;;4.26;78.27;100474.70;251656;1105;115638;-63
2021/03/24 22:28:58;;;;;;;67.70;34.07;;;;;;;4.32;78.37;100471.33;251766;1105;116555;-67
2021/03/24 22:34:07;;;;;;;55.03;29.23;;;;;;;4.26;77.51;100465.95;251739;1105;116188;-66
2021/03/24 22:39:27;;;;;;;67.27;33.33;;;;;;;4.26;78.56;100468.59;252624;1104;115396;-64
2021/03/24 22:44:34;;;;;;;67.95;31.97;;;;;;;4.25;78.29;100467.77;253005;1105;115031;-67
2021/03/24 22:49:52;;;;;;;78.07;37.78;;;;;;;4.31;78.61;100464.41;253071;1105;115877;-64
2021/03/24 22:55:27;;;;;;;70.62;35.85;;;;;;;4.45;76.94;100459.38;253180;1105;115721;-64
2021/03/24 23:00:31;;;;;;;67.45;31.62;;;;;;;4.45;77.11;100464.65;253213;1105;116416;-66
2021/03/24 23:05:36;;;;;;;64.77;31.42;;;;;;;4.46;76.91;100467.11;251651;1105;115554;-67
2021/03/24 23:10:40;;;;;;;60.60;32.85;;;;;;;4.43;78.19;100461.36;254973;1104;116339;-65
2021/03/24 23:16:13;;;;;;;60.52;31.87;;;;;;;4.41;76.90;100464.18;253820;1104;114982;-68
2021/03/24 23:21:19;;;;;;;61.95;32.28;;;;;;;4.43;76.92;100456.08;254638;1104;114940;-66
2021/03/24 23:26:26;;;;;;;64.32;30.15;;;;;;;4.44;77.36;100457.73;254525;1104;114840;-68
2021/03/24 23:31:29;;;;;;;46.08;22.87;;;;;;;4.30;77.21;100457.48;254855;1104;115845;-69
2021/03/24 23:36:35;;;;;;;67.70;34.57;;;;;;;4.37;77.11;100452.33;252672;1105;117545;-67
2021/03/24 23:41:38;;;;;;;72.30;31.73;;;;;;;4.35;77.30;100447.22;251905;1105;115005;-65
2021/03/24 23:46:46;;;;;;;61.37;33.95;;;;;;;4.42;76.85;100434.14;251458;1105;115344;-68